»·PEaware :: N572J P52-KIFP

N572J :: P52-KIFP

FLIGHT INFORMATION

Flight Status: Arrived
Operator: Privately registered:
United States
More flights under this callsign
Pilot: James N. (18449)
Aircraft: BOMBARDIER BD-100 CHALLENGER 300
(CL30)
More flights by this aircraft type
Origin: P52 Cottonwood
United States
Destination: KIFP Laughlin/Bullhead Intl
United States
More flights between these airports :: More routes between these airports
Route: +DRK V12 EED
File this flight plan on PilotEdge
Remarks:
Altitude:
(Current/Filed)
16,000ft
Speed:
(Current/Filed)
377kts
Departed: 25-Mar-18 05:36 PM
Arrived: 25-Mar-18 06:21 PM
Distance/Time
Traveled:
127nm/0:44
Distance/Time
To Go:
Arrived

Flight Plot

Page will automatically refresh every two minutes.

Flight plan parsing failed; only flown route is shown


Map Options




Map Legend


Flown Route
Filed Route
Departure Airport
Arrival Airport
Navaid (VOR, NDB)
Fix

Horizontal Profiles

Position Reports

Time Latitude Longitude Heading Altitude Ground
Speed
25-Mar-18 17:17 34.732107 -112.037585 65 3567ft 0kts
25-Mar-18 17:18 34.732107 -112.037585 65 3567ft 0kts
25-Mar-18 17:19 34.732107 -112.037585 65 3567ft 0kts
25-Mar-18 17:20 34.732107 -112.037585 65 3567ft 0kts
25-Mar-18 17:21 34.732107 -112.037585 65 3567ft 0kts
25-Mar-18 17:22 34.732107 -112.037585 65 3567ft 0kts
25-Mar-18 17:23 34.732107 -112.037585 65 3567ft 0kts
25-Mar-18 17:24 34.732107 -112.037585 65 3567ft 0kts
25-Mar-18 17:25 34.732107 -112.037585 65 3567ft 0kts
25-Mar-18 17:26 34.732107 -112.037585 65 3567ft 0kts
25-Mar-18 17:27 34.732107 -112.037585 65 3567ft 0kts
25-Mar-18 17:28 34.732107 -112.037585 65 3567ft 0kts
25-Mar-18 17:29 34.732107 -112.037585 65 3567ft 0kts
25-Mar-18 17:30 34.732107 -112.037585 65 3567ft 0kts
25-Mar-18 17:31 34.732253 -112.037508 345 3567ft 6kts
25-Mar-18 17:32 34.733574 -112.037880 343 3566ft 5kts
25-Mar-18 17:33 34.735128 -112.038470 55 3567ft 0kts
25-Mar-18 17:34 34.734912 -112.037801 163 3567ft 0kts
25-Mar-18 17:35 34.711532 -112.024201 158 5513ft 138kts
25-Mar-18 17:36 34.670365 -111.995783 154 9575ft 186kts
25-Mar-18 17:37 34.613908 -111.963153 187 10997ft 266kts
25-Mar-18 17:38 34.595052 -112.037084 304 11989ft 304kts
25-Mar-18 17:39 34.638269 -112.120736 287 15422ft 294kts
25-Mar-18 17:40 34.664554 -112.225022 278 16004ft 352kts
25-Mar-18 17:41 34.683745 -112.342532 275 15998ft 356kts
25-Mar-18 17:42 34.699649 -112.460923 275 15997ft 355kts
25-Mar-18 17:43 34.706173 -112.579084 269 15996ft 350kts
25-Mar-18 17:44 34.710965 -112.697270 268 16003ft 349kts
25-Mar-18 17:45 34.715482 -112.815109 268 16002ft 349kts
25-Mar-18 17:46 34.719794 -112.932101 269 16074ft 347kts
25-Mar-18 17:47 34.723998 -113.049164 270 16073ft 346kts
25-Mar-18 17:48 34.728091 -113.166004 270 16060ft 346kts
25-Mar-18 17:49 34.732073 -113.283459 270 16045ft 346kts
25-Mar-18 17:50 34.735906 -113.399936 270 16043ft 346kts
25-Mar-18 17:51 34.739629 -113.516579 270 16042ft 345kts
25-Mar-18 17:52 34.743259 -113.633777 270 16041ft 345kts
25-Mar-18 17:53 34.746742 -113.749767 269 16048ft 345kts
25-Mar-18 17:54 34.750139 -113.866666 269 16033ft 346kts
25-Mar-18 17:55 34.753429 -113.983753 269 16015ft 347kts
25-Mar-18 17:56 34.756547 -114.099059 270 13603ft 343kts
25-Mar-18 17:57 34.759448 -114.208681 270 12624ft 291kts
25-Mar-18 17:58 34.761846 -114.303272 270 11310ft 279kts
25-Mar-18 17:59 34.764135 -114.396438 271 9636ft 273kts
25-Mar-18 18:00 34.795143 -114.469486 337 8016ft 273kts
25-Mar-18 18:02 34.921178 -114.512665 342 7995ft 227kts
25-Mar-18 18:03 34.983141 -114.530410 342 7994ft 230kts
25-Mar-18 18:04 34.992097 -114.575775 201 7981ft 200kts
25-Mar-18 18:05 34.942167 -114.555344 126 6531ft 227kts
25-Mar-18 18:06 34.886950 -114.531553 179 6298ft 224kts
25-Mar-18 18:07 34.831070 -114.544368 254 6307ft 211kts
25-Mar-18 18:08 34.873608 -114.567647 19 6296ft 236kts
25-Mar-18 18:09 34.936070 -114.542601 347 6313ft 234kts
25-Mar-18 18:10 34.969781 -114.584924 233 6288ft 214kts
25-Mar-18 18:11 34.912983 -114.598139 191 4913ft 207kts
25-Mar-18 18:12 34.858326 -114.604843 168 4302ft 210kts
25-Mar-18 18:13 34.862253 -114.546677 6 4307ft 238kts
25-Mar-18 18:14 34.928360 -114.546594 359 4301ft 240kts
25-Mar-18 18:15 34.983033 -114.547798 353 4131ft 175kts
25-Mar-18 18:16 35.028716 -114.550253 354 3178ft 160kts
25-Mar-18 18:17 35.072073 -114.553187 353 2084ft 153kts
25-Mar-18 18:18 35.108378 -114.555867 352 1482ft 121kts
25-Mar-18 18:19 35.142520 -114.558332 351 871ft 124kts
25-Mar-18 18:20 35.162142 -114.559205 34 708ft 13kts
25-Mar-18 18:21 35.162537 -114.557396 175 708ft 4kts
25-Mar-18 18:22 35.160835 -114.556440 83 708ft 0kts
25-Mar-18 18:23 35.160835 -114.556440 83 708ft 0kts
25-Mar-18 18:24 35.160835 -114.556440 83 708ft 0kts
25-Mar-18 18:25 35.160835 -114.556440 83 708ft 0kts
25-Mar-18 18:26 35.160835 -114.556440 83 708ft 0kts
25-Mar-18 18:27 35.160835 -114.556440 83 708ft 0kts
25-Mar-18 18:28 35.160835 -114.556440 83 708ft 0kts
25-Mar-18 18:29 35.160835 -114.556440 83 708ft 0kts
25-Mar-18 18:30 35.160835 -114.556440 83 708ft 0kts
25-Mar-18 18:31 35.160835 -114.556440 83 708ft 0kts
25-Mar-18 18:32 35.160835 -114.556440 83 708ft 0kts
25-Mar-18 18:33 35.160835 -114.556440 83 708ft 0kts

Navigation Log

Ident Type
Flight plan parsing failed, navigation log unavailable